CheckWX is a tool to help pilots better visualize weather data.  It is not intended as a substitute for an official pre-flight weather briefing.

21:02:59 UTC

CYGT METAR
Igloolik Airport
Igloolik, Canada
Current

1 hour ago

CYGT 232000Z 31006KT 15SM FEW095 M31/M34 A2986 RMK AC2 S43 AFT 20UTC/LAST STFD OBS/NEXT 2417UTC SLP123
Observed
Feb-23 @ 20:00 UTC
Wind
  • 310° at 6 KTS
Visibility
15 SM
Flight Rules
VFR
Cloud Levels
  • Few at 9,500' AGL
Temperature
-31°C / -24°F
Dewpoint
-34°C / -29°F
Humidity
75%
Altimeter
29.86" Hg
Pressure
1012.3 hPa
Previous

2 hours ago

CYGT 231900Z 34007KT 15SM FEW095 M31/M34 A2984 RMK AC1 SLP118
Observed
Feb-23 @ 19:00 UTC
Wind
  • 340° at 7 KTS
Visibility
15 SM
Flight Rules
VFR
Cloud Levels
  • Few at 9,500' AGL
Temperature
-31°C / -24°F
Dewpoint
-34°C / -29°F
Humidity
75%
Altimeter
29.84" Hg
Pressure
1011.8 hPa
Previous

3 hours ago

CYGT 231800Z 35011KT 15SM FEW095 M31/M34 A2983 RMK AC1 SLP113
Observed
Feb-23 @ 18:00 UTC
Wind
  • 350° at 11 KTS
Visibility
15 SM
Flight Rules
VFR
Cloud Levels
  • Few at 9,500' AGL
Temperature
-31°C / -24°F
Dewpoint
-34°C / -29°F
Humidity
75%
Altimeter
29.83" Hg
Pressure
1011.3 hPa